createdAt,value
2019-06-07T00:01:11.360Z,65.30
2019-06-07T00:03:40.318Z,65.60
2019-06-07T00:06:13.167Z,65.90
2019-06-07T00:08:39.582Z,65.90
2019-06-07T00:11:11.049Z,66.10
2019-06-07T00:13:38.837Z,66.10
2019-06-07T00:16:08.681Z,66.10
2019-06-07T00:18:37.692Z,66.20
2019-06-07T00:21:08.963Z,66.00
2019-06-07T00:23:36.985Z,66.10
2019-06-07T00:26:06.001Z,65.80
2019-06-07T00:28:35.424Z,65.80
2019-06-07T00:31:04.170Z,65.70
2019-06-07T00:33:32.972Z,65.90
2019-06-07T00:36:01.758Z,65.90
2019-06-07T00:38:30.557Z,66.20
2019-06-07T00:40:59.314Z,66.40
2019-06-07T00:43:28.705Z,66.70
2019-06-07T00:45:57.615Z,66.90
2019-06-07T00:48:32.044Z,67.00
2019-06-07T00:50:56.891Z,67.20
2019-06-07T00:53:31.246Z,67.50
2019-06-07T00:55:56.123Z,67.60
2019-06-07T00:58:27.871Z,68.30
2019-06-07T01:00:55.440Z,68.30
2019-06-07T01:03:25.974Z,68.50
2019-06-07T01:05:54.987Z,68.80
2019-06-07T01:08:27.716Z,69.10
2019-06-07T01:10:54.461Z,69.20
2019-06-07T01:13:26.489Z,69.60
2019-06-07T01:15:53.836Z,70.10
2019-06-07T01:18:43.543Z,70.40
2019-06-07T01:20:53.175Z,70.90
2019-06-07T01:23:59.875Z,71.20
2019-06-07T01:25:52.400Z,71.60
2019-06-07T01:28:24.316Z,72.10
2019-06-07T01:30:52.612Z,72.40
2019-06-07T01:33:23.481Z,72.90
2019-06-07T01:35:51.924Z,73.40
2019-06-07T01:38:21.919Z,73.80
2019-06-07T01:40:51.159Z,74.00
2019-06-07T01:43:26.125Z,74.30
2019-06-07T01:45:50.432Z,74.50
2019-06-07T01:48:22.757Z,74.60
2019-06-07T01:50:49.707Z,74.90
2019-06-07T01:53:21.929Z,75.30
2019-06-07T01:55:48.969Z,75.30
2019-06-07T01:58:19.667Z,75.10
2019-06-07T02:00:48.193Z,75.00
2019-06-07T02:03:18.529Z,74.80
2019-06-07T02:05:47.456Z,74.70
2019-06-07T02:08:16.234Z,74.60
2019-06-07T02:10:45.068Z,74.40
2019-06-07T02:13:13.848Z,74.20
2019-06-07T02:15:42.602Z,73.90
2019-06-07T02:18:11.405Z,73.90
2019-06-07T02:20:40.187Z,73.90
2019-06-07T02:23:08.974Z,74.00
2019-06-07T02:25:45.848Z,74.20
2019-06-07T02:28:27.453Z,74.20
2019-06-07T02:30:49.332Z,74.00
2019-06-07T02:33:09.122Z,74.30
2019-06-07T02:35:40.672Z,74.30
2019-06-07T02:38:08.363Z,74.10
2019-06-07T02:40:37.620Z,74.30
2019-06-07T02:43:06.763Z,74.30
2019-06-07T02:45:42.820Z,74.30
2019-06-07T02:48:06.194Z,73.90
2019-06-07T02:50:38.405Z,73.60
2019-06-07T02:53:05.419Z,73.10
2019-06-07T02:56:11.002Z,72.50
2019-06-07T02:58:04.657Z,72.10
2019-06-07T03:01:06.938Z,70.70
2019-06-07T03:03:19.182Z,67.00
2019-06-07T03:05:48.417Z,61.40
2019-06-07T03:08:17.850Z,57.40
2019-06-07T03:10:50.853Z,55.20
2019-06-07T03:13:21.327Z,52.80
2019-06-07T03:15:55.466Z,50.40
2019-06-07T03:18:42.370Z,48.10
2019-06-07T03:21:15.883Z,47.20
2019-06-07T03:23:45.009Z,45.30
2019-06-07T03:26:14.706Z,43.40
2019-06-07T03:28:43.567Z,42.80
2019-06-07T03:31:12.396Z,42.20
2019-06-07T03:33:44.671Z,41.60
2019-06-07T03:36:23.541Z,41.50
2019-06-07T03:45:41.527Z,39.70
2019-06-07T03:48:09.644Z,39.20
2019-06-07T03:50:42.005Z,38.50
2019-06-07T03:53:08.956Z,37.50
2019-06-07T03:55:39.061Z,37.00
2019-06-07T04:00:42.761Z,35.30
2019-06-07T04:03:09.121Z,35.10
2019-06-07T04:05:41.209Z,34.60
2019-06-07T04:08:08.409Z,34.40
2019-06-07T04:10:53.480Z,34.30
2019-06-07T04:13:07.652Z,33.90
2019-06-07T04:15:40.838Z,33.50
2019-06-07T04:18:06.902Z,32.90
2019-06-07T04:20:38.037Z,32.50
2019-06-07T04:23:27.291Z,31.10
2019-06-07T04:25:39.582Z,30.00
2019-06-07T04:28:07.270Z,29.60
2019-06-07T04:30:46.148Z,29.60
2019-06-07T04:33:15.399Z,29.70
2019-06-07T04:35:45.298Z,29.80
2019-06-07T04:38:15.368Z,29.60
2019-06-07T04:40:44.973Z,29.60
2019-06-07T04:43:13.901Z,29.40
2019-06-07T04:45:50.616Z,28.60
2019-06-07T04:48:13.178Z,28.00
2019-06-07T04:50:44.060Z,27.30
2019-06-07T04:53:12.509Z,27.00
2019-06-07T04:55:41.817Z,26.60
2019-06-07T04:58:10.886Z,26.30
2019-06-07T05:00:53.323Z,25.80
2019-06-07T05:03:10.803Z,26.70
2019-06-07T05:05:41.849Z,28.10
2019-06-07T05:08:27.006Z,28.50
2019-06-07T05:10:43.625Z,27.70
2019-06-07T05:13:10.898Z,26.80
2019-06-07T05:15:42.058Z,26.50
2019-06-07T05:18:10.214Z,26.40
2019-06-07T05:20:43.579Z,25.60
2019-06-07T05:23:09.514Z,26.10
2019-06-07T05:25:39.297Z,25.60
2019-06-07T05:28:08.755Z,26.00
2019-06-07T05:33:10.276Z,26.50
2019-06-07T05:35:41.811Z,26.20
2019-06-07T05:38:09.682Z,25.80
2019-06-07T05:40:48.409Z,25.80
2019-06-07T05:43:27.739Z,25.40
2019-06-07T05:45:56.530Z,25.40
2019-06-07T05:48:26.712Z,25.40
2019-06-07T05:50:57.265Z,25.40
2019-06-07T05:53:26.502Z,25.30
2019-06-07T05:55:55.750Z,25.30
2019-06-07T05:58:24.632Z,25.20
2019-06-07T06:00:53.553Z,24.60
2019-06-07T06:03:22.357Z,24.10
2019-06-07T06:05:55.271Z,24.10
2019-06-07T06:08:21.753Z,23.70
2019-06-07T06:10:50.537Z,23.30
2019-06-07T06:13:19.367Z,22.90
2019-06-07T06:16:00.541Z,22.40
2019-06-07T06:18:18.671Z,22.40
2019-06-07T06:21:09.731Z,21.60
2019-06-07T06:23:18.038Z,20.80
2019-06-07T06:25:53.677Z,20.40
2019-06-07T06:28:17.417Z,20.70
2019-06-07T06:30:49.718Z,21.00
2019-06-07T06:33:33.019Z,21.70
2019-06-07T06:35:49.409Z,21.70
2019-06-07T06:38:18.464Z,21.40
2019-06-07T06:40:54.980Z,21.20
2019-06-07T06:43:17.788Z,21.00
2019-06-07T06:45:47.834Z,21.70
2019-06-07T06:48:17.128Z,22.10
2019-06-07T06:50:49.119Z,22.50
2019-06-07T06:53:16.448Z,22.60
2019-06-07T06:55:48.463Z,22.90
2019-06-07T06:58:15.687Z,22.70
2019-06-07T07:00:58.750Z,22.30
2019-06-07T07:05:54.670Z,22.40
2019-06-07T07:08:21.792Z,22.40
2019-06-07T07:10:53.176Z,22.40
2019-06-07T07:13:21.469Z,22.60
2019-06-07T07:15:56.915Z,22.90
2019-06-07T07:18:20.765Z,23.30
2019-06-07T07:20:51.336Z,23.50
2019-06-07T07:23:20.027Z,23.50
2019-06-07T07:25:54.808Z,23.40
2019-06-07T07:28:19.420Z,23.60
2019-06-07T07:30:54.862Z,23.80
2019-06-07T07:33:21.007Z,23.60
2019-06-07T07:36:10.883Z,23.90
2019-06-07T07:38:20.460Z,23.30
2019-06-07T07:41:01.594Z,22.70
2019-06-07T07:43:19.859Z,22.20
2019-06-07T07:45:57.296Z,22.30
2019-06-07T07:48:19.169Z,22.70
2019-06-07T07:50:53.123Z,22.70
2019-06-07T07:53:18.377Z,23.30
2019-06-07T07:55:50.409Z,23.50
2019-06-07T07:58:17.681Z,23.90
2019-06-07T08:00:53.952Z,23.80
2019-06-07T08:03:17.043Z,23.70
2019-06-07T08:05:47.177Z,23.80
2019-06-07T08:08:16.266Z,24.20
2019-06-07T08:10:45.097Z,24.10
2019-06-07T08:13:24.990Z,24.10
2019-06-07T08:15:44.460Z,24.30
2019-06-07T08:18:13.314Z,24.10
2019-06-07T08:21:01.488Z,23.60
2019-06-07T08:23:12.644Z,23.70
2019-06-07T08:25:42.533Z,23.50
2019-06-07T08:28:11.328Z,23.40
2019-06-07T08:30:51.262Z,23.30
2019-06-07T08:33:25.231Z,22.80
2019-06-07T08:36:06.069Z,23.50
2019-06-07T08:38:26.022Z,23.80
2019-06-07T08:40:42.097Z,24.20
2019-06-07T08:43:19.893Z,24.80
2019-06-07T08:45:41.275Z,25.20
2019-06-07T08:48:27.109Z,25.60
2019-06-07T08:50:40.556Z,26.30
2019-06-07T08:53:12.181Z,27.10
2019-06-07T08:55:39.841Z,28.00
2019-06-07T08:58:09.020Z,29.10
2019-06-07T09:00:47.454Z,30.10
2019-06-07T09:03:08.665Z,30.80
2019-06-07T09:05:37.487Z,32.50
2019-06-07T09:08:28.307Z,32.20
2019-06-07T09:10:36.865Z,32.50
2019-06-07T09:13:11.160Z,33.40
2019-06-07T09:15:36.588Z,34.40
2019-06-07T09:20:45.113Z,35.10
2019-06-07T09:23:17.403Z,35.20
2019-06-07T09:25:56.515Z,34.80
2019-06-07T09:28:19.737Z,35.20
2019-06-07T09:30:47.024Z,35.70
2019-06-07T09:33:15.821Z,35.50
2019-06-07T09:35:44.800Z,35.10
2019-06-07T09:38:24.869Z,35.50
2019-06-07T09:40:44.000Z,35.50
2019-06-07T09:43:59.804Z,35.40
2019-06-07T09:45:43.394Z,35.90
2019-06-07T09:48:16.112Z,35.90
2019-06-07T09:50:42.599Z,36.20
2019-06-07T09:53:21.670Z,36.80
2019-06-07T09:55:41.965Z,37.30
2019-06-07T09:58:48.334Z,38.60
2019-06-07T10:00:42.866Z,38.30
2019-06-07T10:03:20.541Z,39.10
2019-06-07T10:05:42.475Z,39.60
2019-06-07T10:08:41.340Z,39.70
2019-06-07T10:10:43.117Z,39.60
2019-06-07T10:13:12.411Z,38.30
2019-06-07T10:15:41.804Z,39.00
2019-06-07T10:18:10.639Z,39.50
2019-06-07T10:20:39.418Z,39.60
2019-06-07T10:23:08.251Z,40.00
2019-06-07T10:25:37.141Z,40.20
2019-06-07T10:28:06.229Z,40.10
2019-06-07T10:30:35.764Z,39.80
2019-06-07T10:33:05.038Z,40.30
2019-06-07T10:35:35.350Z,40.90
2019-06-07T10:38:04.571Z,41.10
2019-06-07T10:40:33.596Z,41.40
2019-06-07T10:43:02.983Z,41.30
2019-06-07T10:45:31.989Z,41.80
2019-06-07T10:48:03.533Z,41.90
2019-06-07T10:50:32.515Z,41.40
2019-06-07T10:53:02.325Z,41.30
2019-06-07T10:55:31.318Z,41.40
2019-06-07T10:58:00.055Z,41.40
2019-06-07T11:00:30.384Z,41.60
2019-06-07T11:02:59.151Z,41.40
2019-06-07T11:05:27.938Z,41.20
2019-06-07T11:08:00.288Z,41.40
2019-06-07T11:10:27.268Z,41.20
2019-06-07T11:12:56.156Z,41.20
2019-06-07T11:15:24.930Z,40.70
2019-06-07T11:17:53.754Z,40.80
2019-06-07T11:20:22.600Z,41.00
2019-06-07T11:22:51.444Z,41.00
2019-06-07T11:25:20.239Z,41.20
2019-06-07T11:27:49.036Z,41.30
2019-06-07T11:30:18.781Z,41.30
2019-06-07T11:32:47.707Z,41.30
2019-06-07T11:35:19.120Z,40.70
2019-06-07T11:37:47.986Z,40.80
2019-06-07T11:40:32.078Z,41.00
2019-06-07T11:42:47.839Z,41.30
2019-06-07T11:45:18.086Z,41.20
2019-06-07T11:47:47.029Z,41.10
2019-06-07T11:50:16.086Z,40.70
2019-06-07T11:52:46.452Z,40.80
2019-06-07T11:55:15.991Z,41.10
2019-06-07T11:57:44.900Z,41.20
2019-06-07T12:00:16.474Z,41.30
2019-06-07T12:02:45.857Z,41.20
2019-06-07T12:05:18.418Z,41.40
2019-06-07T12:07:46.096Z,41.60
2019-06-07T12:10:19.147Z,41.60
2019-06-07T12:12:45.893Z,41.80
2019-06-07T12:15:17.300Z,41.50
2019-06-07T12:17:46.281Z,41.60
2019-06-07T12:20:18.667Z,41.50
2019-06-07T12:22:47.371Z,41.50
2019-06-07T12:25:20.734Z,41.50
2019-06-07T12:27:47.596Z,41.30
2019-06-07T12:30:22.513Z,41.10
2019-06-07T12:32:46.985Z,41.50
2019-06-07T12:35:15.899Z,41.60
2019-06-07T12:37:45.152Z,41.90
2019-06-07T12:40:26.277Z,42.20
2019-06-07T12:42:45.565Z,42.70
2019-06-07T12:45:32.365Z,43.10
2019-06-07T12:47:45.050Z,43.60
2019-06-07T12:50:15.388Z,43.30
2019-06-07T12:52:44.487Z,42.80
2019-06-07T12:55:14.089Z,42.80
2019-06-07T12:57:43.422Z,42.20
2019-06-07T13:00:14.105Z,42.30
2019-06-07T13:02:43.341Z,42.10
2019-06-07T13:05:12.679Z,42.60
2019-06-07T13:07:41.545Z,42.80
2019-06-07T13:10:10.970Z,42.70
2019-06-07T13:12:39.826Z,42.70
2019-06-07T13:15:08.963Z,42.80
2019-06-07T13:17:37.908Z,42.60
2019-06-07T13:20:08.604Z,42.30
2019-06-07T13:22:37.723Z,42.30
2019-06-07T13:25:09.676Z,42.10
2019-06-07T13:27:38.555Z,42.20
2019-06-07T13:30:10.171Z,42.70
2019-06-07T13:32:39.282Z,43.10
2019-06-07T13:35:08.406Z,43.90
2019-06-07T13:37:37.223Z,43.20
2019-06-07T13:40:09.130Z,43.30
2019-06-07T13:42:37.915Z,43.60
2019-06-07T13:45:07.766Z,43.10
2019-06-07T13:47:36.565Z,43.50
2019-06-07T13:50:06.859Z,43.90
2019-06-07T13:52:35.700Z,44.10
2019-06-07T13:55:05.154Z,44.20
2019-06-07T13:57:34.025Z,44.30
2019-06-07T14:00:10.244Z,44.20
2019-06-07T14:02:33.331Z,43.80
2019-06-07T14:05:02.092Z,43.60
2019-06-07T14:07:30.883Z,43.90
2019-06-07T14:09:59.677Z,43.70
2019-06-07T14:12:29.592Z,43.80
2019-06-07T14:14:58.540Z,43.50
2019-06-07T14:17:28.254Z,42.50
2019-06-07T14:19:57.836Z,42.00
2019-06-07T14:22:26.890Z,42.00
2019-06-07T14:24:55.741Z,42.40
2019-06-07T14:27:25.471Z,42.20
2019-06-07T14:29:54.450Z,42.20
2019-06-07T14:32:24.830Z,42.30
2019-06-07T14:34:53.860Z,42.30
2019-06-07T14:37:22.843Z,42.10
2019-06-07T14:39:51.625Z,42.40
2019-06-07T14:42:20.501Z,42.50
2019-06-07T14:44:49.321Z,42.40
2019-06-07T14:47:18.150Z,41.80
2019-06-07T14:49:46.962Z,41.80
2019-06-07T14:52:15.821Z,42.70
2019-06-07T14:54:44.608Z,43.20
2019-06-07T14:57:13.509Z,43.30
2019-06-07T14:59:42.719Z,44.30
2019-06-07T15:02:11.574Z,45.10
2019-06-07T15:04:44.168Z,45.50
2019-06-07T15:07:16.044Z,45.70
2019-06-07T15:09:44.868Z,44.50
2019-06-07T15:12:24.579Z,46.00
2019-06-07T15:14:44.080Z,47.40
2019-06-07T15:17:12.885Z,48.00
2019-06-07T15:19:41.634Z,48.50
2019-06-07T15:22:10.427Z,49.10
2019-06-07T15:24:40.564Z,49.50
2019-06-07T15:27:09.672Z,50.20
2019-06-07T15:29:38.721Z,50.40
2019-06-07T15:32:07.776Z,50.40
2019-06-07T15:34:36.669Z,50.00
2019-06-07T15:37:05.521Z,49.50
2019-06-07T15:39:34.660Z,49.20
2019-06-07T15:42:03.578Z,49.50
2019-06-07T15:44:33.339Z,49.20
2019-06-07T15:47:02.292Z,49.00
2019-06-07T15:49:31.987Z,48.60
2019-06-07T15:52:01.019Z,48.70
2019-06-07T15:54:30.271Z,48.00
2019-06-07T15:56:59.244Z,47.50
2019-06-07T15:59:27.995Z,47.90
2019-06-07T16:01:56.879Z,48.00
2019-06-07T16:04:25.744Z,47.50
2019-06-07T16:06:54.592Z,47.30
2019-06-07T16:09:23.469Z,47.20
2019-06-07T16:11:52.405Z,47.20
2019-06-07T16:14:21.224Z,47.60
2019-06-07T16:22:59.030Z,48.20
2019-06-07T16:25:27.890Z,48.20
2019-06-07T16:27:56.730Z,47.90
2019-06-07T16:30:25.670Z,47.80
2019-06-07T16:32:54.473Z,47.80
2019-06-07T16:35:23.247Z,47.90
2019-06-07T16:37:52.597Z,47.90
2019-06-07T16:40:21.538Z,48.30
2019-06-07T16:42:50.281Z,48.70
2019-06-07T16:45:19.683Z,48.60
2019-06-07T16:47:49.761Z,48.40
2019-06-07T16:50:18.712Z,48.30
2019-06-07T16:52:48.611Z,47.70
2019-06-07T16:55:18.405Z,47.20
2019-06-07T16:57:47.165Z,46.60
2019-06-07T17:00:16.059Z,45.50
2019-06-07T17:02:45.323Z,44.90
2019-06-07T17:05:15.690Z,44.80
2019-06-07T17:07:45.194Z,45.20
2019-06-07T17:10:15.139Z,45.50
2019-06-07T17:12:44.859Z,45.20
2019-06-07T17:15:15.354Z,45.30
2019-06-07T17:17:45.121Z,45.90
2019-06-07T17:20:14.219Z,46.30
2019-06-07T17:22:44.072Z,46.50
2019-06-07T17:25:14.956Z,46.90
2019-06-07T17:27:43.958Z,47.20
2019-06-07T17:30:14.106Z,47.40
2019-06-07T17:32:51.810Z,47.60
2019-06-07T17:35:13.560Z,47.50
2019-06-07T17:37:44.307Z,47.80
2019-06-07T17:40:13.422Z,48.40
2019-06-07T17:46:11.216Z,49.00
2019-06-07T17:48:41.403Z,49.40
2019-06-07T17:51:10.382Z,49.80
2019-06-07T17:53:39.211Z,50.10
2019-06-07T17:56:08.004Z,51.00
2019-06-07T17:58:36.783Z,51.10
2019-06-07T18:01:05.668Z,51.40
2019-06-07T18:03:34.480Z,51.70
2019-06-07T18:06:03.747Z,52.20
2019-06-07T18:08:32.551Z,52.40
2019-06-07T18:11:01.374Z,52.60
2019-06-07T18:13:30.127Z,52.50
2019-06-07T18:15:59.848Z,53.00
2019-06-07T18:18:28.802Z,53.30
2019-06-07T18:20:57.654Z,53.50
2019-06-07T18:23:26.461Z,53.70
2019-06-07T18:25:55.274Z,54.20
2019-06-07T18:28:24.196Z,54.60
2019-06-07T18:30:54.880Z,55.40
2019-06-07T18:33:23.863Z,56.20
2019-06-07T18:35:53.333Z,55.70
2019-06-07T18:38:22.289Z,55.60
2019-06-07T18:40:51.293Z,55.70
2019-06-07T18:43:20.686Z,55.90
2019-06-07T18:45:49.507Z,56.20
2019-06-07T18:48:18.345Z,56.50
2019-06-07T18:50:48.477Z,56.80
2019-06-07T18:53:17.560Z,57.10
2019-06-07T18:55:47.722Z,58.00
2019-06-07T18:58:16.665Z,58.40
2019-06-07T19:00:45.558Z,58.90
2019-06-07T19:03:14.341Z,59.60
2019-06-07T19:05:43.179Z,59.90
2019-06-07T19:08:12.014Z,60.90
2019-06-07T19:10:40.909Z,61.40
2019-06-07T19:13:09.716Z,62.30
2019-06-07T19:15:38.495Z,62.90
2019-06-07T19:18:07.401Z,63.30
2019-06-07T19:20:36.308Z,63.90
2019-06-07T19:23:05.750Z,64.20
2019-06-07T19:25:34.672Z,64.80
2019-06-07T19:28:03.450Z,65.50
2019-06-07T19:30:32.392Z,66.10
2019-06-07T19:33:01.546Z,65.70
2019-06-07T19:35:30.501Z,66.10
2019-06-07T19:37:59.966Z,66.40
2019-06-07T19:40:29.014Z,67.10
2019-06-07T19:42:58.527Z,67.40
2019-06-07T19:45:30.964Z,67.70
2019-06-07T19:47:58.716Z,68.20
2019-06-07T19:50:27.776Z,68.80
2019-06-07T20:03:23.135Z,70.60
2019-06-07T20:05:52.043Z,71.20
2019-06-07T20:08:20.805Z,71.50
2019-06-07T20:10:49.622Z,71.40
2019-06-07T20:13:19.215Z,71.80
2019-06-07T20:15:48.082Z,71.90
2019-06-07T20:18:16.955Z,72.20
2019-06-07T20:20:46.233Z,72.60
2019-06-07T20:23:15.097Z,72.90
2019-06-07T20:25:43.907Z,73.20
2019-06-07T20:28:12.700Z,73.60
2019-06-07T20:30:41.516Z,73.70
2019-06-07T20:33:10.316Z,73.90
2019-06-07T20:35:39.159Z,74.20
2019-06-07T20:38:09.425Z,74.80
2019-06-07T20:40:38.472Z,75.30
2019-06-07T20:43:08.239Z,75.60
2019-06-07T20:45:37.162Z,76.00
2019-06-07T20:48:06.373Z,76.70
2019-06-07T20:50:35.392Z,77.20
2019-06-07T20:53:05.172Z,77.40
2019-06-07T20:55:34.144Z,77.50
2019-06-07T20:58:03.763Z,77.70
2019-06-07T21:00:33.639Z,77.90
2019-06-07T21:03:03.237Z,78.60
2019-06-07T21:05:32.128Z,79.00
2019-06-07T21:08:01.852Z,79.80
2019-06-07T21:10:30.827Z,80.40
2019-06-07T21:12:59.714Z,80.70
2019-06-07T21:15:29.123Z,81.00
2019-06-07T21:17:57.871Z,81.50
2019-06-07T21:20:26.715Z,82.20
2019-06-07T21:22:55.554Z,82.20
2019-06-07T21:25:24.338Z,82.90
2019-06-07T21:27:53.112Z,83.40
2019-06-07T21:30:21.865Z,83.30
2019-06-07T21:32:50.635Z,83.70
2019-06-07T21:35:19.465Z,84.30
2019-06-07T21:37:48.282Z,84.30
2019-06-07T21:40:17.213Z,84.60
2019-06-07T21:42:46.073Z,85.60
2019-06-07T21:45:15.705Z,86.80
2019-06-07T21:47:44.544Z,87.60
2019-06-07T21:50:13.420Z,88.00
2019-06-07T21:52:42.247Z,89.30
2019-06-07T21:55:11.589Z,90.10
2019-06-07T21:57:40.399Z,90.30
2019-06-07T22:00:28.841Z,90.80
2019-06-07T22:02:57.712Z,90.60
2019-06-07T22:05:26.575Z,90.90
2019-06-07T22:07:55.347Z,91.20
2019-06-07T22:10:24.149Z,91.40
2019-06-07T22:12:53.011Z,91.60
2019-06-07T22:15:33.147Z,91.80
2019-06-07T22:17:52.511Z,91.70
2019-06-07T22:20:21.299Z,91.70
2019-06-07T22:22:50.111Z,91.80
2019-06-07T22:25:18.890Z,92.20
2019-06-07T22:27:47.764Z,91.70
2019-06-07T22:30:16.767Z,91.60
2019-06-07T22:32:45.649Z,91.60
2019-06-07T22:35:15.013Z,91.50
2019-06-07T22:37:43.863Z,91.40
2019-06-07T22:40:14.580Z,91.40
2019-06-07T22:42:43.627Z,91.20
2019-06-07T22:45:12.483Z,91.00
2019-06-07T22:47:41.348Z,90.90
2019-06-07T22:50:14.357Z,90.60
2019-06-07T22:52:43.865Z,90.60
2019-06-07T22:55:13.848Z,90.30
2019-06-07T22:57:53.023Z,90.20
2019-06-07T23:00:21.910Z,90.20
2019-06-07T23:02:50.683Z,90.30
2019-06-07T23:05:19.489Z,90.60
2019-06-07T23:07:48.276Z,90.70
2019-06-07T23:10:17.471Z,90.70
2019-06-07T23:12:46.382Z,90.80
2019-06-07T23:15:15.442Z,90.80
2019-06-07T23:17:44.321Z,90.80
2019-06-07T23:20:13.731Z,90.70
2019-06-07T23:22:42.664Z,91.20
2019-06-07T23:25:12.267Z,91.20
2019-06-07T23:27:41.254Z,91.20
2019-06-07T23:30:12.329Z,91.30
2019-06-07T23:32:41.194Z,91.40
2019-06-07T23:35:10.688Z,91.50
2019-06-07T23:37:39.606Z,91.20
2019-06-07T23:40:08.900Z,91.20
2019-06-07T23:42:37.707Z,91.00
2019-06-07T23:45:07.356Z,91.00
2019-06-07T23:47:36.116Z,90.90
2019-06-07T23:50:09.102Z,90.90
2019-06-07T23:52:37.915Z,90.70
2019-06-07T23:55:08.388Z,91.00
2019-06-07T23:57:37.207Z,90.40
